Time;durP1;ratioP1;P1;durP2;ratioP2;P2;SDS_P1;SDS_P2;PMS_P1;PMS_P2;Temp;Humidity;BMP_temperature;BMP_pressure;BME280_temperature;BME280_humidity;BME280_pressure;Samples;Min_cycle;Max_cycle;Signal;HPM_P1;HPM_P2
2022/07/19 00:02:15;;;;;;;3.33;1.80;;;;;;;13.43;100.00;100659.77;1673192;85;22510;-56
2022/07/19 00:04:44;;;;;;;6.83;2.00;;;;;;;13.42;100.00;100664.20;1681637;83;21773;-56
2022/07/19 00:07:11;;;;;;;3.50;1.90;;;;;;;13.44;100.00;100662.69;1669529;85;21777;-57
2022/07/19 00:09:39;;;;;;;3.80;2.00;;;;;;;13.41;100.00;100663.06;1668898;85;21674;-64
2022/07/19 00:12:06;;;;;;;3.23;1.77;;;;;;;13.42;100.00;100665.51;1669604;85;22630;-56
2022/07/19 00:14:34;;;;;;;4.33;1.83;;;;;;;13.43;100.00;100663.69;1669666;85;22009;-60
2022/07/19 00:17:04;;;;;;;4.00;1.70;;;;;;;13.48;100.00;100663.41;1669914;85;21764;-56
2022/07/19 00:19:32;;;;;;;4.83;1.97;;;;;;;13.54;100.00;100666.58;1669200;85;21789;-65
2022/07/19 00:21:59;;;;;;;5.10;2.13;;;;;;;13.53;100.00;100661.55;1669251;85;21752;-59
2022/07/19 00:24:26;;;;;;;3.10;1.67;;;;;;;13.58;100.00;100665.70;1669881;84;22172;-55
2022/07/19 00:26:53;;;;;;;3.40;2.00;;;;;;;13.60;100.00;100669.75;1669561;85;21765;-55
2022/07/19 00:29:20;;;;;;;2.50;1.70;;;;;;;13.57;100.00;100662.78;1669983;85;21626;-65
2022/07/19 00:31:47;;;;;;;3.50;1.90;;;;;;;13.63;100.00;100668.03;1668618;85;21753;-57
2022/07/19 00:34:15;;;;;;;3.73;1.90;;;;;;;13.66;100.00;100664.23;1669374;85;22437;-57
2022/07/19 00:36:42;;;;;;;3.23;2.07;;;;;;;13.65;100.00;100667.86;1669545;85;21714;-56
2022/07/19 00:39:09;;;;;;;4.73;2.10;;;;;;;13.63;100.00;100665.42;1669571;85;21701;-56
2022/07/19 00:41:41;;;;;;;3.30;1.67;;;;;;;13.66;100.00;100668.67;1669044;85;21764;-65
2022/07/19 00:44:10;;;;;;;4.23;1.73;;;;;;;13.66;100.00;100660.30;1669617;85;22650;-56
2022/07/19 00:46:38;;;;;;;9.87;2.40;;;;;;;13.61;100.00;100667.94;1669983;85;21769;-56
2022/07/19 00:49:05;;;;;;;3.33;1.77;;;;;;;13.51;100.00;100663.03;1669441;85;21805;-58
2022/07/19 00:51:35;;;;;;;5.17;2.27;;;;;;;13.36;100.00;100659.20;1669675;84;21644;-59
2022/07/19 00:54:04;;;;;;;6.37;2.23;;;;;;;13.25;100.00;100658.92;1668717;85;21606;-58
2022/07/19 00:56:33;;;;;;;4.53;2.17;;;;;;;13.15;100.00;100661.86;1669635;85;21795;-56
2022/07/19 00:59:02;;;;;;;5.33;2.40;;;;;;;13.04;100.00;100660.56;1670042;85;21728;-57
2022/07/19 01:01:30;;;;;;;3.57;1.80;;;;;;;12.97;100.00;100662.81;1669674;85;22297;-62
2022/07/19 01:03:57;;;;;;;3.60;2.07;;;;;;;12.88;100.00;100665.57;1677988;83;21676;-56
2022/07/19 01:06:24;;;;;;;5.37;1.73;;;;;;;12.81;100.00;100669.93;1673767;85;21461;-56
2022/07/19 01:08:52;;;;;;;4.60;2.00;;;;;;;12.66;100.00;100673.11;1708174;83;22252;-56
2022/07/19 01:11:19;;;;;;;3.97;2.47;;;;;;;12.72;100.00;100671.03;1673920;85;21810;-65
2022/07/19 01:13:46;;;;;;;4.33;2.20;;;;;;;12.72;100.00;100671.03;1707139;83;21581;-56
2022/07/19 01:16:14;;;;;;;4.10;2.10;;;;;;;12.75;100.00;100670.66;1687372;83;21798;-56
2022/07/19 01:18:41;;;;;;;4.90;1.87;;;;;;;12.75;100.00;100670.66;1673548;85;21631;-56
2022/07/19 01:21:21;;;;;;;5.23;2.10;;;;;;;12.76;100.00;100669.66;1707980;83;21688;-56
2022/07/19 01:23:49;;;;;;;3.50;1.80;;;;;;;12.85;100.00;100669.86;1707598;83;22664;-56
2022/07/19 01:26:16;;;;;;;4.60;2.23;;;;;;;12.85;100.00;100665.13;1673917;85;21681;-56
2022/07/19 01:28:45;;;;;;;3.50;2.00;;;;;;;12.89;100.00;100671.11;1708004;83;21612;-56
2022/07/19 01:31:12;;;;;;;3.40;1.90;;;;;;;12.90;100.00;100672.72;1707437;83;22209;-60
2022/07/19 01:33:42;;;;;;;6.10;2.47;;;;;;;12.88;100.00;100686.50;1672589;85;22913;-56
2022/07/19 01:36:09;;;;;;;4.20;2.00;;;;;;;12.88;100.00;100686.50;1672922;85;22322;-56
2022/07/19 01:38:38;;;;;;;6.23;2.37;;;;;;;12.77;100.00;100687.00;1707599;83;21775;-56
2022/07/19 01:41:06;;;;;;;5.20;2.00;;;;;;;12.72;100.00;100682.80;1673224;85;22150;-60
2022/07/19 01:43:34;;;;;;;4.07;2.13;;;;;;;12.64;100.00;100688.97;1706575;83;21709;-58
2022/07/19 01:46:02;;;;;;;4.60;2.33;;;;;;;12.55;100.00;100695.82;1673775;85;21810;-57
2022/07/19 01:48:29;;;;;;;6.63;2.03;;;;;;;12.48;100.00;100693.63;1708163;83;21376;-56
2022/07/19 01:50:56;;;;;;;4.00;2.20;;;;;;;12.47;100.00;100688.91;1673569;85;21703;-56
2022/07/19 01:53:25;;;;;;;3.80;1.73;;;;;;;12.48;100.00;100695.74;1706931;83;21546;-56
2022/07/19 01:55:52;;;;;;;5.40;2.20;;;;;;;12.38;100.00;100696.02;1673774;85;22179;-56
2022/07/19 01:58:19;;;;;;;3.80;2.07;;;;;;;12.38;100.00;100689.48;1707976;83;21750;-57
2022/07/19 02:00:47;;;;;;;3.80;2.00;;;;;;;12.48;100.00;100705.39;1673527;85;21691;-58
2022/07/19 02:03:14;;;;;;;5.40;1.93;;;;;;;12.48;100.00;100705.39;1706751;83;22095;-59
2022/07/19 02:05:41;;;;;;;4.60;2.30;;;;;;;12.50;100.00;100711.23;1679440;85;22071;-56
2022/07/19 02:08:10;;;;;;;4.77;2.20;;;;;;;12.63;100.00;100710.89;1712949;83;21715;-56
2022/07/19 02:10:37;;;;;;;5.83;1.97;;;;;;;12.98;100.00;100712.84;1713155;83;21613;-56
2022/07/19 02:13:04;;;;;;;3.80;2.00;;;;;;;13.29;100.00;100710.71;1680756;85;21841;-59
2022/07/19 02:15:31;;;;;;;3.17;1.70;;;;;;;13.80;100.00;100711.78;1712076;83;21728;-57
2022/07/19 02:18:00;;;;;;;5.03;2.03;;;;;;;14.29;100.00;100712.13;1680928;85;20941;-56
2022/07/19 02:20:27;;;;;;;5.73;2.20;;;;;;;14.79;100.00;100710.06;1713338;83;20951;-56
2022/07/19 02:22:55;;;;;;;3.53;1.90;;;;;;;15.28;100.00;100708.89;1681101;85;21547;-64
2022/07/19 02:25:22;;;;;;;4.33;1.97;;;;;;;15.71;100.00;100711.59;1711927;83;20991;-57
2022/07/19 02:27:49;;;;;;;3.67;1.80;;;;;;;16.26;100.00;100711.53;1680799;85;21494;-56
2022/07/19 02:30:17;;;;;;;3.17;1.80;;;;;;;16.83;100.00;100716.12;1680627;85;20993;-58
2022/07/19 02:32:44;;;;;;;4.50;2.17;;;;;;;17.37;100.00;100710.21;1712349;83;21047;-57
2022/07/19 02:35:12;;;;;;;5.50;2.33;;;;;;;17.86;100.00;100705.10;1680081;85;21147;-57
2022/07/19 02:37:40;;;;;;;4.90;2.07;;;;;;;18.31;100.00;100710.05;1680131;85;20995;-56
2022/07/19 02:40:08;;;;;;;3.97;2.07;;;;;;;18.64;100.00;100706.97;1711456;83;21277;-57
2022/07/19 02:42:36;;;;;;;3.40;1.60;;;;;;;18.77;100.00;100709.44;1680288;84;21464;-56
2022/07/19 02:45:04;;;;;;;3.97;2.33;;;;;;;18.84;100.00;100714.63;1712041;83;20931;-57
2022/07/19 02:47:32;;;;;;;6.97;2.63;;;;;;;19.05;100.00;100716.72;1680182;85;21191;-55
2022/07/19 02:49:59;;;;;;;5.33;2.17;;;;;;;19.23;100.00;100722.95;1712443;83;21051;-56
2022/07/19 02:52:27;;;;;;;3.53;2.03;;;;;;;19.08;100.00;100725.52;1680647;85;21158;-55
2022/07/19 02:54:55;;;;;;;6.60;1.70;;;;;;;18.88;100.00;100731.63;1661503;85;20953;-62
2022/07/19 02:57:22;;;;;;;3.40;1.80;;;;;;;18.81;100.00;100733.56;1712089;83;21974;-59
2022/07/19 02:59:49;;;;;;;3.60;1.90;;;;;;;19.22;100.00;100731.92;1680427;85;21006;-56
2022/07/19 03:02:16;;;;;;;3.93;1.87;;;;;;;19.84;100.00;100737.05;1712416;83;21269;-55
2022/07/19 03:04:43;;;;;;;4.63;1.70;;;;;;;20.61;100.00;100731.45;1701294;83;21164;-58
2022/07/19 03:07:10;;;;;;;3.90;1.70;;;;;;;21.33;100.00;100731.33;1668568;84;21035;-55
2022/07/19 03:09:39;;;;;;;3.77;2.03;;;;;;;22.07;100.00;100731.77;1668529;85;21891;-63
2022/07/19 03:12:06;;;;;;;3.03;1.57;;;;;;;22.76;100.00;100734.38;1668847;85;21822;-57
2022/07/19 03:14:34;;;;;;;3.67;2.20;;;;;;;23.48;100.00;100724.56;1668913;84;21070;-58
2022/07/19 03:17:01;;;;;;;4.73;2.53;;;;;;;24.21;100.00;100731.33;1668966;85;21610;-56
2022/07/19 03:19:29;;;;;;;5.70;2.10;;;;;;;24.88;96.27;100729.58;1669181;85;20959;-56
2022/07/19 03:21:58;;;;;;;2.87;2.17;;;;;;;25.57;87.32;100734.05;1668748;85;20971;-56
2022/07/19 03:24:25;;;;;;;3.12;2.02;;;;;;;26.18;76.34;100729.32;1668839;85;21061;-56
2022/07/19 03:26:52;;;;;;;4.22;2.90;;;;;;;26.97;68.70;100727.18;1668169;85;21509;-57
2022/07/19 03:29:19;;;;;;;3.65;2.40;;;;;;;27.32;63.79;100734.92;1668947;85;22647;-58
2022/07/19 03:31:47;;;;;;;2.98;2.20;;;;;;;28.12;56.09;100734.83;1668541;85;21055;-64
2022/07/19 03:34:14;;;;;;;3.10;2.10;;;;;;;28.12;56.09;100734.83;1668907;85;21085;-56
2022/07/19 03:36:41;;;;;;;3.00;1.92;;;;;;;28.50;53.95;100736.99;1669186;85;21560;-56
2022/07/19 03:39:08;;;;;;;3.08;2.22;;;;;;;28.91;52.14;100739.59;1668364;85;21007;-56
2022/07/19 03:41:36;;;;;;;3.67;2.20;;;;;;;29.41;50.12;100739.80;1669479;85;21202;-56
2022/07/19 03:44:04;;;;;;;3.50;2.22;;;;;;;29.79;48.07;100741.77;1668187;85;21011;-58
2022/07/19 03:46:31;;;;;;;3.55;2.00;;;;;;;30.14;46.71;100748.83;1669184;85;21907;-55
2022/07/19 03:48:59;;;;;;;2.52;2.25;;;;;;;30.57;44.93;100747.86;1668190;85;20963;-65
2022/07/19 03:51:26;;;;;;;3.55;2.10;;;;;;;30.93;43.06;100744.34;1669179;85;21841;-56
2022/07/19 03:53:54;;;;;;;3.00;2.25;;;;;;;31.17;42.80;100739.39;1668741;85;21153;-63
2022/07/19 03:56:21;;;;;;;3.30;1.65;;;;;;;31.49;41.76;100736.95;1669138;85;21082;-57
2022/07/19 03:58:48;;;;;;;2.35;1.82;;;;;;;31.87;40.64;100745.89;1669265;85;21019;-61
2022/07/19 04:01:16;;;;;;;4.37;2.22;;;;;;;32.21;39.55;100746.48;1668567;85;21663;-58
2022/07/19 04:03:43;;;;;;;2.80;1.80;;;;;;;32.54;39.09;100754.11;1669231;85;21765;-57
2022/07/19 04:06:10;;;;;;;3.10;2.22;;;;;;;32.96;37.93;100751.72;1698558;83;21119;-57
2022/07/19 04:08:38;;;;;;;6.67;2.58;;;;;;;33.21;37.47;100751.94;1680291;85;21367;-56
2022/07/19 04:11:05;;;;;;;3.92;1.70;;;;;;;33.53;36.60;100754.07;1679966;85;21062;-64
2022/07/19 04:13:35;;;;;;;5.67;2.72;;;;;;;33.79;36.39;100756.63;1680307;85;22052;-56
2022/07/19 04:16:03;;;;;;;3.02;2.00;;;;;;;34.08;36.09;100755.81;1712878;83;21051;-57
2022/07/19 04:18:30;;;;;;;4.40;2.12;;;;;;;34.56;34.87;100751.80;1680086;85;21070;-56
2022/07/19 04:20:59;;;;;;;3.62;2.40;;;;;;;34.90;34.32;100756.63;1712109;83;21214;-57
2022/07/19 04:23:26;;;;;;;4.35;2.70;;;;;;;35.33;33.79;100749.94;1711852;83;21086;-58
2022/07/19 04:25:53;;;;;;;4.37;2.40;;;;;;;35.74;32.78;100748.14;1680234;85;21397;-57
2022/07/19 04:28:22;;;;;;;3.52;2.40;;;;;;;36.02;32.09;100751.72;1712094;83;21062;-58
2022/07/19 04:30:49;;;;;;;6.15;4.00;;;;;;;36.35;31.41;100750.72;1679887;85;21274;-56
2022/07/19 04:33:17;;;;;;;6.12;3.30;;;;;;;36.62;30.87;100752.44;1712116;83;21039;-64
2022/07/19 04:35:45;;;;;;;6.20;3.80;;;;;;;36.83;30.41;100755.73;1680421;84;21437;-57
2022/07/19 04:38:12;;;;;;;7.85;5.30;;;;;;;37.07;30.35;100756.73;1712352;83;21524;-56
2022/07/19 04:40:39;;;;;;;8.28;5.03;;;;;;;37.28;29.84;100759.17;1680210;85;21407;-58
2022/07/19 04:43:06;;;;;;;7.62;4.10;;;;;;;37.37;29.32;100751.06;1712618;83;21372;-57
2022/07/19 04:45:34;;;;;;;8.18;6.10;;;;;;;37.34;29.39;100748.25;1679631;85;20941;-57
2022/07/19 04:48:01;;;;;;;8.15;5.78;;;;;;;37.03;29.09;100745.77;1712269;83;21113;-57
2022/07/19 04:50:28;;;;;;;10.43;6.20;;;;;;;36.77;29.27;100748.95;1679895;85;21092;-57
2022/07/19 04:52:56;;;;;;;10.85;7.03;;;;;;;36.69;29.97;100752.63;1712378;83;21360;-58
2022/07/19 04:55:24;;;;;;;12.37;8.30;;;;;;;36.96;29.60;100755.89;1680410;85;22338;-66
2022/07/19 04:57:52;;;;;;;14.23;8.85;;;;;;;37.37;29.12;100748.91;1712395;83;21026;-58
2022/07/19 05:00:19;;;;;;;15.20;10.65;;;;;;;37.48;29.19;100753.48;1680119;85;21025;-58
2022/07/19 05:02:48;;;;;;;17.32;10.48;;;;;;;37.77;28.52;100754.11;1712692;83;21054;-56
2022/07/19 05:05:15;;;;;;;13.30;9.00;;;;;;;37.95;28.05;100762.12;1711022;83;21018;-63
2022/07/19 05:07:44;;;;;;;17.45;11.33;;;;;;;37.91;28.40;100761.83;1672943;85;21247;-57
2022/07/19 05:10:11;;;;;;;19.73;13.13;;;;;;;38.02;28.33;100756.62;1707741;83;21008;-59
2022/07/19 05:12:40;;;;;;;13.93;9.25;;;;;;;38.14;28.49;100760.56;1706871;83;20916;-62
2022/07/19 05:15:09;;;;;;;18.05;12.45;;;;;;;38.24;28.11;100758.63;1706996;83;21141;-59
2022/07/19 05:17:37;;;;;;;17.17;10.95;;;;;;;38.33;27.81;100757.05;1707679;83;21070;-57
2022/07/19 05:20:06;;;;;;;15.85;11.12;;;;;;;38.40;27.53;100759.94;1707701;83;21153;-57
2022/07/19 05:22:33;;;;;;;13.15;9.28;;;;;;;38.28;27.55;100754.05;1707035;83;21474;-57
2022/07/19 05:25:01;;;;;;;15.15;9.95;;;;;;;38.16;27.86;100752.83;1673171;85;21566;-59
2022/07/19 05:27:28;;;;;;;18.82;11.08;;;;;;;38.17;27.72;100758.48;1706919;83;20996;-57
2022/07/19 05:29:56;;;;;;;15.38;11.73;;;;;;;38.11;27.63;100753.91;1707281;83;21103;-58
2022/07/19 05:32:23;;;;;;;17.85;12.60;;;;;;;38.16;27.46;100758.28;1707380;83;21333;-64
2022/07/19 05:34:50;;;;;;;19.55;12.15;;;;;;;37.89;27.59;100754.03;1706883;83;21000;-57
2022/07/19 05:37:18;;;;;;;21.23;13.18;;;;;;;37.72;28.14;100750.31;1706856;83;21082;-66
2022/07/19 05:39:47;;;;;;;23.27;13.38;;;;;;;37.81;28.00;100752.28;1707485;83;21134;-57
2022/07/19 05:42:15;;;;;;;14.93;9.28;;;;;;;37.64;28.10;100752.09;1707592;83;27034;-57
2022/07/19 05:44:42;;;;;;;15.20;9.70;;;;;;;37.75;28.36;100752.33;1672643;85;21704;-58
2022/07/19 05:47:09;;;;;;;16.65;11.12;;;;;;;37.93;27.81;100746.73;1707041;83;21076;-60
2022/07/19 05:49:37;;;;;;;16.80;10.50;;;;;;;37.85;27.97;100742.84;1706971;83;21064;-56
2022/07/19 05:52:05;;;;;;;18.25;10.80;;;;;;;36.80;28.95;100733.33;1707469;83;21075;-56
2022/07/19 05:54:33;;;;;;;18.42;10.80;;;;;;;35.35;30.68;100740.91;1706994;83;21070;-58
2022/07/19 05:57:00;;;;;;;20.00;11.85;;;;;;;34.22;32.15;100756.13;1707045;83;21363;-58
2022/07/19 05:59:27;;;;;;;16.80;9.95;;;;;;;33.59;33.59;100759.50;1706571;83;21046;-59
2022/07/19 06:01:55;;;;;;;18.15;10.25;;;;;;;33.39;33.72;100762.36;1673092;85;21582;-57
2022/07/19 06:04:22;;;;;;;18.73;10.28;;;;;;;33.34;33.83;100755.01;1707440;83;21059;-57
2022/07/19 06:06:50;;;;;;;17.23;10.30;;;;;;;33.46;34.27;100757.02;1680929;83;21116;-63
2022/07/19 06:09:17;;;;;;;19.37;11.73;;;;;;;34.03;33.42;100756.02;1668391;85;21768;-60
2022/07/19 06:11:44;;;;;;;14.50;9.63;;;;;;;34.43;32.96;100755.53;1638186;87;21434;-57
2022/07/19 06:14:12;;;;;;;16.37;8.83;;;;;;;34.84;31.79;100757.40;1659494;86;21513;-58
2022/07/19 06:16:40;;;;;;;10.32;5.67;;;;;;;35.25;31.33;100749.48;1659384;86;21011;-65
2022/07/19 06:19:10;;;;;;;8.00;4.30;;;;;;;35.85;30.16;100748.47;1659302;85;21916;-61
2022/07/19 06:21:38;;;;;;;5.67;3.45;;;;;;;36.40;29.07;100748.31;1659555;86;22546;-58
2022/07/19 06:24:06;;;;;;;8.30;4.65;;;;;;;36.93;28.41;100739.46;1659553;86;21047;-58
2022/07/19 06:26:33;;;;;;;7.42;4.40;;;;;;;37.35;27.81;100736.23;1659752;86;21002;-66
2022/07/19 06:29:00;;;;;;;7.22;4.58;;;;;;;37.58;27.41;100735.03;1658396;86;21106;-62
2022/07/19 06:31:27;;;;;;;5.97;3.52;;;;;;;37.83;27.33;100739.09;1659971;86;21569;-58
2022/07/19 06:33:55;;;;;;;12.03;7.53;;;;;;;38.11;26.63;100738.94;1659957;86;21239;-57
2022/07/19 06:36:22;;;;;;;17.00;8.30;;;;;;;38.33;26.71;100737.41;1658998;86;21525;-60
2022/07/19 06:38:49;;;;;;;11.63;6.62;;;;;;;38.11;27.09;100744.94;1659523;86;21075;-58
2022/07/19 06:41:16;;;;;;;12.78;7.45;;;;;;;37.55;27.90;100736.55;1659087;86;21002;-58
2022/07/19 06:43:43;;;;;;;12.18;7.33;;;;;;;37.45;28.17;100734.36;1659591;86;21522;-58
2022/07/19 06:46:11;;;;;;;13.48;7.78;;;;;;;37.47;27.98;100732.09;1659536;86;21200;-57
2022/07/19 06:48:39;;;;;;;6.37;4.08;;;;;;;37.53;27.43;100729.88;1669224;85;21575;-65
2022/07/19 06:51:06;;;;;;;6.10;3.35;;;;;;;37.46;26.25;100731.86;1658698;85;21067;-60
2022/07/19 06:53:35;;;;;;;7.62;2.90;;;;;;;36.73;26.10;100737.22;1669320;85;21560;-59
2022/07/19 06:56:04;;;;;;;7.33;3.52;;;;;;;35.78;26.05;100736.27;1669157;85;21046;-59
2022/07/19 06:58:32;;;;;;;4.53;2.20;;;;;;;34.98;27.65;100727.30;1669412;85;21153;-58
2022/07/19 07:01:00;;;;;;;2.33;1.20;;;;;;;34.98;27.65;100727.30;1668828;85;20923;-66
2022/07/19 07:03:28;;;;;;;2.58;1.27;;;;;;;35.35;27.25;100724.66;1669865;85;21774;-57
2022/07/19 07:05:55;;;;;;;1.62;1.17;;;;;;;35.86;27.09;100715.56;1676187;83;21636;-58
2022/07/19 07:08:22;;;;;;;2.87;1.40;;;;;;;36.46;26.93;100715.72;1707779;83;21517;-57
2022/07/19 07:10:51;;;;;;;3.42;1.30;;;;;;;37.05;26.49;100710.08;1672707;85;21024;-66
2022/07/19 07:13:18;;;;;;;4.40;1.47;;;;;;;37.64;25.84;100714.58;1707813;83;21003;-58
2022/07/19 07:15:45;;;;;;;2.05;1.25;;;;;;;38.02;25.12;100713.85;1673367;85;21052;-58
2022/07/19 07:18:13;;;;;;;2.72;1.10;;;;;;;38.20;24.74;100716.36;1708144;83;21102;-58
2022/07/19 07:20:41;;;;;;;2.33;1.40;;;;;;;38.18;24.80;100720.58;1673550;85;21021;-56
2022/07/19 07:23:16;;;;;;;3.72;1.52;;;;;;;37.97;24.62;100718.23;1706890;83;21246;-65
2022/07/19 07:25:44;;;;;;;2.02;1.10;;;;;;;37.94;24.31;100722.45;1673700;85;21084;-56
2022/07/19 07:28:11;;;;;;;2.77;1.17;;;;;;;37.85;24.64;100723.21;1708196;83;21411;-58
2022/07/19 07:30:39;;;;;;;2.10;1.10;;;;;;;38.01;24.45;100723.75;1673962;84;21031;-56
2022/07/19 07:33:06;;;;;;;2.02;1.15;;;;;;;38.25;24.25;100721.30;1707043;83;21020;-56
2022/07/19 07:35:34;;;;;;;1.62;0.98;;;;;;;38.48;24.18;100725.45;1673762;85;21364;-58
2022/07/19 07:38:01;;;;;;;1.25;0.85;;;;;;;38.76;24.04;100719.16;1707546;83;20994;-58
2022/07/19 07:40:28;;;;;;;1.00;0.68;;;;;;;38.89;23.00;100723.88;1673852;85;21046;-57
2022/07/19 07:42:56;;;;;;;2.25;1.00;;;;;;;39.00;22.83;100722.69;1707824;83;20980;-63
2022/07/19 07:45:23;;;;;;;1.65;1.12;;;;;;;38.76;22.64;100724.61;1672639;85;21166;-59
2022/07/19 07:47:51;;;;;;;2.75;0.93;;;;;;;38.65;23.10;100722.27;1707670;83;21452;-58
2022/07/19 07:50:18;;;;;;;1.67;0.95;;;;;;;38.71;23.03;100718.08;1672918;85;21076;-60
2022/07/19 07:52:45;;;;;;;1.60;0.93;;;;;;;38.69;22.30;100719.81;1707394;83;21074;-58
2022/07/19 07:55:12;;;;;;;1.65;0.80;;;;;;;38.61;22.29;100718.13;1672501;85;21041;-63
2022/07/19 07:57:39;;;;;;;3.25;0.90;;;;;;;38.63;22.90;100720.47;1706864;83;21031;-56
2022/07/19 08:00:11;;;;;;;1.10;0.70;;;;;;;38.78;22.54;100716.06;1673064;85;21167;-57
2022/07/19 08:02:44;;;;;;;2.22;0.70;;;;;;;38.67;22.48;100714.51;1672887;85;21069;-62
2022/07/19 08:05:12;;;;;;;1.47;0.72;;;;;;;38.51;22.40;100719.28;1706721;83;21070;-58
2022/07/19 08:07:40;;;;;;;1.22;0.90;;;;;;;38.56;22.25;100716.25;1673473;84;21028;-57
2022/07/19 08:10:08;;;;;;;1.45;0.75;;;;;;;38.63;21.55;100707.63;1707521;83;21098;-58
2022/07/19 08:12:36;;;;;;;1.67;0.90;;;;;;;38.49;21.96;100709.31;1673312;85;21140;-66
2022/07/19 08:15:06;;;;;;;2.95;1.05;;;;;;;38.64;21.71;100711.14;1706580;83;21430;-59
2022/07/19 08:17:33;;;;;;;1.12;0.80;;;;;;;38.77;21.38;100707.09;1673493;85;21016;-58
2022/07/19 08:20:02;;;;;;;2.00;1.00;;;;;;;38.51;21.56;100707.03;1707589;83;21020;-57
2022/07/19 08:22:29;;;;;;;3.15;0.95;;;;;;;38.24;21.53;100705.53;1707661;83;21047;-60
2022/07/19 08:24:57;;;;;;;1.72;0.80;;;;;;;38.40;21.92;100704.89;1672467;85;21548;-60
2022/07/19 08:27:25;;;;;;;1.10;0.70;;;;;;;38.60;21.73;100698.81;1707385;83;21933;-57
2022/07/19 08:29:52;;;;;;;1.50;0.80;;;;;;;38.54;21.66;100696.78;1672476;85;21543;-57
2022/07/19 08:32:20;;;;;;;2.05;0.68;;;;;;;38.28;21.58;100698.80;1707360;83;21568;-61
2022/07/19 08:34:47;;;;;;;1.27;0.82;;;;;;;37.99;21.54;100698.23;1707303;83;20948;-56
2022/07/19 08:37:15;;;;;;;1.07;0.68;;;;;;;37.83;21.55;100695.55;1672501;85;21265;-57
2022/07/19 08:39:42;;;;;;;1.72;0.90;;;;;;;37.80;21.60;100694.12;1707325;83;21405;-57
2022/07/19 08:42:11;;;;;;;1.60;0.90;;;;;;;37.72;21.92;100689.10;1673224;85;21136;-57
2022/07/19 08:44:39;;;;;;;1.98;1.00;;;;;;;37.74;22.38;100689.55;1706714;83;21042;-57
2022/07/19 08:47:07;;;;;;;2.75;1.07;;;;;;;37.78;22.20;100683.61;1673130;85;21116;-65
2022/07/19 08:49:34;;;;;;;2.55;0.72;;;;;;;37.68;22.33;100689.02;1673056;85;22270;-59
2022/07/19 08:52:03;;;;;;;2.17;1.00;;;;;;;37.75;22.18;100681.59;1707303;83;20997;-59
2022/07/19 08:54:31;;;;;;;2.02;0.80;;;;;;;37.82;22.37;100684.46;1706337;83;21592;-59
2022/07/19 08:59:43;;;;;;;2.27;1.42;;;;;;;37.82;23.09;100674.94;1707091;83;22118;-56
2022/07/19 09:02:10;;;;;;;1.57;0.80;;;;;;;37.82;22.66;100672.22;1672767;85;21205;-58
2022/07/19 09:04:37;;;;;;;1.85;1.20;;;;;;;37.85;22.13;100674.23;1707184;83;21489;-55
2022/07/19 09:07:05;;;;;;;2.60;1.30;;;;;;;37.64;22.34;100669.12;1666810;84;21083;-58
2022/07/19 09:09:37;;;;;;;2.77;1.57;;;;;;;37.39;22.37;100665.04;1690640;84;21130;-57
2022/07/19 09:12:04;;;;;;;3.08;1.17;;;;;;;37.23;23.00;100666.44;1690277;84;21070;-64
2022/07/19 09:14:36;;;;;;;2.10;1.07;;;;;;;37.31;22.68;100669.53;1657335;86;21391;-57
2022/07/19 09:17:11;;;;;;;2.58;1.40;;;;;;;37.35;22.47;100660.87;1691079;84;21063;-56
2022/07/19 09:19:40;;;;;;;2.27;1.40;;;;;;;37.26;22.53;100667.87;1691039;84;21081;-57
2022/07/19 09:22:10;;;;;;;2.33;1.22;;;;;;;37.16;22.79;100656.18;1689920;84;21033;-58
2022/07/19 09:24:43;;;;;;;2.47;1.50;;;;;;;37.16;23.02;100656.76;1690896;84;21106;-58
2022/07/19 09:27:16;;;;;;;4.47;1.47;;;;;;;37.22;22.94;100654.78;1656896;86;21891;-67
2022/07/19 09:29:48;;;;;;;2.37;1.32;;;;;;;37.33;22.64;100659.67;1689351;84;21540;-65
2022/07/19 09:32:17;;;;;;;3.12;1.15;;;;;;;37.28;22.86;100663.47;1674453;84;21042;-56
2022/07/19 09:34:56;;;;;;;2.20;1.40;;;;;;;37.52;22.38;100661.67;1691095;84;20983;-56
2022/07/19 09:37:32;;;;;;;2.22;1.30;;;;;;;37.45;22.24;100659.00;1690652;84;21058;-59
2022/07/19 09:40:01;;;;;;;3.83;1.45;;;;;;;37.19;22.22;100656.05;1657128;85;21938;-56
2022/07/19 09:42:44;;;;;;;2.55;1.30;;;;;;;36.82;22.30;100653.60;1691038;84;21465;-57
2022/07/19 09:45:14;;;;;;;2.45;1.55;;;;;;;36.70;23.06;100651.77;1690437;83;21022;-58
2022/07/19 09:47:44;;;;;;;2.42;1.30;;;;;;;36.65;22.46;100649.33;1690977;84;21046;-57
2022/07/19 09:50:16;;;;;;;2.87;1.62;;;;;;;36.45;23.24;100641.63;1690789;84;21054;-57
2022/07/19 09:52:45;;;;;;;2.83;1.60;;;;;;;36.45;23.11;100636.19;1656904;85;21263;-64
2022/07/19 09:55:12;;;;;;;2.85;1.77;;;;;;;36.43;23.45;100642.53;1690707;84;21678;-57
2022/07/19 09:57:47;;;;;;;1.92;1.50;;;;;;;36.60;23.34;100636.59;1657202;85;21723;-57
2022/07/19 10:00:16;;;;;;;3.77;1.72;;;;;;;36.89;22.97;100634.76;1690937;84;21062;-57
2022/07/19 10:02:50;;;;;;;3.85;2.25;;;;;;;37.04;22.62;100629.70;1690793;84;21117;-59
2022/07/19 10:05:17;;;;;;;4.12;1.90;;;;;;;37.07;21.94;100633.06;1690749;84;22005;-57
2022/07/19 10:07:44;;;;;;;2.83;1.62;;;;;;;37.13;21.97;100623.52;1667351;85;21121;-58
2022/07/19 10:10:14;;;;;;;3.85;1.70;;;;;;;37.22;22.13;100624.88;1678228;85;21572;-59
2022/07/19 10:12:45;;;;;;;2.95;1.70;;;;;;;37.25;22.15;100626.89;1677569;85;21600;-59
2022/07/19 10:15:15;;;;;;;4.25;1.90;;;;;;;36.96;22.07;100619.23;1654991;86;21442;-57
2022/07/19 10:18:10;;;;;;;2.92;1.77;;;;;;;36.37;22.68;100626.30;1678733;85;21219;-57
2022/07/19 10:20:39;;;;;;;2.98;1.70;;;;;;;35.68;23.03;100623.39;1653564;86;21021;-56
2022/07/19 10:23:06;;;;;;;4.37;2.00;;;;;;;35.00;24.20;100624.03;1678665;85;21488;-56
2022/07/19 10:25:45;;;;;;;2.62;1.90;;;;;;;34.86;24.75;100621.66;1673832;85;21601;-56
2022/07/19 10:28:35;;;;;;;5.78;1.90;;;;;;;35.03;24.15;100617.94;1677925;85;21517;-64
2022/07/19 10:31:02;;;;;;;3.12;1.98;;;;;;;35.15;24.48;100615.78;1678274;85;21885;-57
2022/07/19 10:33:36;;;;;;;3.42;1.92;;;;;;;35.05;24.83;100611.63;1677572;85;21073;-57
2022/07/19 10:36:33;;;;;;;3.22;2.00;;;;;;;34.90;24.24;100606.30;1677488;85;21064;-65
2022/07/19 10:39:35;;;;;;;2.75;1.92;;;;;;;34.46;24.98;100610.63;1678010;85;21074;-57
2022/07/19 10:42:16;;;;;;;2.98;1.62;;;;;;;33.89;24.84;100614.81;1654325;86;21091;-57
2022/07/19 10:45:01;;;;;;;2.70;1.70;;;;;;;33.26;25.86;100612.61;1678347;85;21296;-63
2022/07/19 10:47:42;;;;;;;3.22;2.02;;;;;;;32.72;26.17;100614.52;1653942;86;21434;-60
2022/07/19 10:50:14;;;;;;;3.40;2.20;;;;;;;32.13;27.03;100607.59;1678391;85;21066;-57
2022/07/19 10:52:46;;;;;;;2.77;1.62;;;;;;;31.67;27.63;100610.31;1677630;85;21032;-59
2022/07/19 10:55:25;;;;;;;2.80;1.50;;;;;;;31.13;28.26;100615.90;1654474;86;21494;-58
2022/07/19 10:58:08;;;;;;;3.03;1.70;;;;;;;30.87;29.24;100610.42;1678507;85;21548;-57
2022/07/19 11:00:48;;;;;;;2.40;1.47;;;;;;;31.16;29.31;100603.16;1663663;85;21349;-58
2022/07/19 11:03:26;;;;;;;2.75;1.65;;;;;;;31.55;27.89;100598.82;1678815;85;20978;-56
2022/07/19 11:06:00;;;;;;;2.17;1.22;;;;;;;31.59;28.21;100606.51;1654163;86;21577;-60
2022/07/19 11:08:36;;;;;;;3.37;1.30;;;;;;;31.33;27.88;100600.29;1678440;85;21078;-58
2022/07/19 11:11:13;;;;;;;2.27;1.30;;;;;;;31.13;28.22;100601.64;1678095;85;21154;-58
2022/07/19 11:13:44;;;;;;;5.17;1.25;;;;;;;30.87;28.28;100601.55;1653594;86;21088;-60
2022/07/19 11:16:11;;;;;;;2.40;1.20;;;;;;;30.65;28.94;100602.38;1649579;86;21078;-54
2022/07/19 11:18:39;;;;;;;2.33;1.30;;;;;;;30.65;28.94;100602.38;1654873;86;21086;-60
2022/07/19 11:21:06;;;;;;;1.65;1.07;;;;;;;30.58;29.14;100600.14;1678698;85;21138;-61
2022/07/19 11:23:36;;;;;;;2.42;1.40;;;;;;;30.52;29.10;100600.81;1677729;85;21336;-64
2022/07/19 11:26:15;;;;;;;1.85;1.10;;;;;;;30.44;29.33;100598.88;1654318;86;21012;-57
2022/07/19 11:28:43;;;;;;;1.55;1.07;;;;;;;30.23;29.61;100598.60;1678055;85;21541;-58
2022/07/19 11:31:19;;;;;;;1.85;0.93;;;;;;;30.06;30.29;100597.09;1653716;86;21014;-59
2022/07/19 11:33:49;;;;;;;2.35;0.90;;;;;;;29.90;30.22;100595.88;1678102;85;21106;-58